createdAt,value
2023-03-23T00:03:37.300Z,99.9
2023-03-23T00:05:43.352Z,99.9
2023-03-23T00:09:54.582Z,99.9
2023-03-23T00:12:00.328Z,99.9
2023-03-23T00:14:06.081Z,99.9
2023-03-23T00:18:20.533Z,99.9
2023-03-23T00:20:26.291Z,99.9
2023-03-23T00:24:37.802Z,99.9
2023-03-23T00:26:48.024Z,99.9
2023-03-23T00:28:49.306Z,99.9
2023-03-23T00:30:55.059Z,99.9
2023-03-23T00:33:03.854Z,99.9
2023-03-23T00:35:09.547Z,99.9
2023-03-23T00:38:19.651Z,99.9
2023-03-23T00:40:25.415Z,99.9
2023-03-23T00:42:31.159Z,99.9
2023-03-23T00:44:36.904Z,99.9
2023-03-23T00:46:45.644Z,99.9
2023-03-23T00:48:51.405Z,99.9
2023-03-23T00:50:57.152Z,99.9
2023-03-23T00:53:02.899Z,99.9
2023-03-23T00:55:08.659Z,99.9
2023-03-23T00:57:14.422Z,99.9
2023-03-23T01:01:28.892Z,99.9
2023-03-23T01:03:34.653Z,99.9
2023-03-23T01:05:40.520Z,99.9
2023-03-23T01:07:46.130Z,99.9
2023-03-23T01:09:51.882Z,99.9
2023-03-23T01:14:03.399Z,99.9
2023-03-23T01:16:12.109Z,99.9
2023-03-23T01:20:23.596Z,99.9
2023-03-23T01:22:29.335Z,99.9
2023-03-23T01:24:35.111Z,99.9
2023-03-23T01:26:40.843Z,99.9
2023-03-23T01:28:46.578Z,99.9
2023-03-23T01:30:55.305Z,99.9
2023-03-23T01:33:01.065Z,99.9
2023-03-23T01:35:06.812Z,99.9
2023-03-23T02:04:58.808Z,99.9
2023-03-23T02:07:04.532Z,99.9
2023-03-23T02:11:22.169Z,99.9
2023-03-23T02:19:41.975Z,99.9
2023-03-23T02:21:47.729Z,99.9
2023-03-23T02:25:59.229Z,99.9
2023-03-23T02:28:07.984Z,99.9
2023-03-23T02:30:13.701Z,99.9
2023-03-23T02:32:19.452Z,99.9
2023-03-23T02:33:23.812Z,99.9
2023-03-23T02:35:29.561Z,99.9
2023-03-23T02:37:35.306Z,99.9
2023-03-23T02:39:41.048Z,99.9
2023-03-23T02:43:55.548Z,99.9
2023-03-23T02:46:01.278Z,99.9
2023-03-23T02:48:07.001Z,99.9
2023-03-23T02:50:12.788Z,99.9
2023-03-23T02:52:18.507Z,99.9
2023-03-23T02:54:24.265Z,99.9
2023-03-23T02:56:33.000Z,99.9
2023-03-23T02:58:38.765Z,99.9
2023-03-23T03:00:44.512Z,99.9
2023-03-23T03:02:50.271Z,99.9
2023-03-23T03:04:56.018Z,99.9
2023-03-23T03:07:01.763Z,99.9
2023-03-23T03:09:07.485Z,99.9
2023-03-23T03:11:16.210Z,99.9
2023-03-23T03:13:21.978Z,99.9
2023-03-23T03:15:27.722Z,99.9
2023-03-23T03:19:39.243Z,99.9
2023-03-23T03:21:44.954Z,99.9
2023-03-23T03:23:50.705Z,99.9
2023-03-23T03:25:59.437Z,99.9
2023-03-23T03:28:05.187Z,99.9
2023-03-23T03:30:10.941Z,99.9
2023-03-23T03:31:15.322Z,99.9
2023-03-23T03:33:21.061Z,99.9
2023-03-23T03:35:26.802Z,99.9
2023-03-23T03:37:32.534Z,99.9
2023-03-23T03:41:47.050Z,99.9
2023-03-23T03:43:52.786Z,99.9
2023-03-23T03:52:15.843Z,99.9
2023-03-23T03:56:30.315Z,99.9
2023-03-23T04:00:43.373Z,99.9
2023-03-23T04:02:49.120Z,99.9
2023-03-23T04:07:00.657Z,99.9
2023-03-23T04:09:09.388Z,99.9
2023-03-23T04:13:20.902Z,99.9
2023-03-23T04:15:26.665Z,99.9
2023-03-23T04:17:32.410Z,99.9
2023-03-23T04:19:38.192Z,99.9
2023-03-23T04:21:43.958Z,99.9
2023-03-23T04:23:52.685Z,99.9
2023-03-23T04:25:58.462Z,99.9
2023-03-23T04:28:04.228Z,99.9
2023-03-23T04:29:08.586Z,99.9
2023-03-23T04:31:14.346Z,99.9
2023-03-23T04:33:22.280Z,99.9
2023-03-23T04:35:25.848Z,99.9
2023-03-23T04:37:34.594Z,99.9
2023-03-23T04:43:51.881Z,99.9
2023-03-23T04:48:03.391Z,99.9
2023-03-23T04:58:35.176Z,99.9
2023-03-23T05:02:46.707Z,99.9
2023-03-23T05:07:01.227Z,99.9
2023-03-23T05:09:06.989Z,99.9
2023-03-23T05:11:12.748Z,99.9
2023-03-23T05:13:18.513Z,99.9
2023-03-23T05:23:50.301Z,99.9
2023-03-23T05:28:25.639Z,99.9
2023-03-23T05:30:31.376Z,99.9
2023-03-23T05:34:45.871Z,99.9
2023-03-23T05:36:51.607Z,99.9
2023-03-23T05:38:57.376Z,99.9
2023-03-23T05:41:03.155Z,99.9
2023-03-23T05:43:08.898Z,99.9
2023-03-23T05:45:14.685Z,99.9
2023-03-23T05:47:20.450Z,99.9
2023-03-23T05:53:40.689Z,99.9
2023-03-23T05:55:46.461Z,99.9
2023-03-23T05:57:52.207Z,99.9
2023-03-23T06:02:03.740Z,99.9
2023-03-23T06:04:12.500Z,99.9
2023-03-23T06:06:18.268Z,99.9
2023-03-23T06:08:24.021Z,99.9
2023-03-23T06:12:35.526Z,99.9
2023-03-23T06:14:41.295Z,99.9
2023-03-23T06:16:47.048Z,99.9
2023-03-23T06:18:55.795Z,99.9
2023-03-23T06:21:01.594Z,99.9
2023-03-23T06:23:07.344Z,99.9
2023-03-23T06:38:54.994Z,99.9
2023-03-23T06:41:00.760Z,99.9
2023-03-23T06:43:06.520Z,99.9
2023-03-23T06:45:12.273Z,99.9
2023-03-23T06:49:26.764Z,99.9
2023-03-23T06:51:32.542Z,99.9
2023-03-23T06:53:38.261Z,99.9
2023-03-23T06:57:49.768Z,99.9
2023-03-23T07:08:21.431Z,99.9
2023-03-23T07:10:27.201Z,99.9
2023-03-23T07:12:32.953Z,99.9
2023-03-23T07:14:38.716Z,99.9
2023-03-23T07:16:47.407Z,99.9
2023-03-23T07:20:58.884Z,99.9
2023-03-23T07:22:03.237Z,99.9
2023-03-23T07:30:29.679Z,99.9
2023-03-23T07:32:34.969Z,99.9
2023-03-23T07:34:40.692Z,99.9
2023-03-23T07:36:46.476Z,99.9
2023-03-23T07:38:52.190Z,99.9
2023-03-23T07:40:57.922Z,99.9
2023-03-23T07:49:23.932Z,99.9
2023-03-23T07:57:46.897Z,99.9
2023-03-23T07:59:55.607Z,99.9
2023-03-23T08:02:01.403Z,99.9
2023-03-23T08:04:07.132Z,99.9
2023-03-23T08:06:12.880Z,99.9
2023-03-23T08:14:38.839Z,99.9
2023-03-23T08:16:44.594Z,99.9
2023-03-23T08:18:50.354Z,99.9
2023-03-23T08:19:54.724Z,99.9
2023-03-23T08:26:11.997Z,99.9
2023-03-23T08:28:20.728Z,99.9
2023-03-23T08:43:04.001Z,99.9
2023-03-23T08:47:15.615Z,99.9
2023-03-23T09:06:10.351Z,99.9
2023-03-23T09:10:21.890Z,99.9
2023-03-23T09:12:31.020Z,99.9
2023-03-23T09:14:36.481Z,99.9
2023-03-23T09:16:42.252Z,99.9
2023-03-23T09:31:51.154Z,99.9
2023-03-23T09:33:56.905Z,99.9
2023-03-23T09:38:08.505Z,99.9
2023-03-23T09:40:17.191Z,99.9
2023-03-23T09:42:22.954Z,99.9
2023-03-23T09:44:28.751Z,99.9
2023-03-23T09:52:51.853Z,99.9
2023-03-23T09:59:12.172Z,99.9
2023-03-23T10:01:19.594Z,99.9
2023-03-23T10:07:36.864Z,99.9
2023-03-23T10:09:45.641Z,99.9
2023-03-23T10:15:01.582Z,99.9
2023-03-23T10:25:33.498Z,99.9
2023-03-23T10:27:39.329Z,99.9
2023-03-23T10:29:46.128Z,99.9
2023-03-23T10:31:51.097Z,99.9
2023-03-23T10:33:56.660Z,99.9
2023-03-23T10:36:02.502Z,99.9
2023-03-23T10:38:11.179Z,99.9
2023-03-23T10:40:17.012Z,99.9
2023-03-23T10:42:22.772Z,99.9
2023-03-23T10:44:28.544Z,99.9
2023-03-23T10:46:37.385Z,99.9
2023-03-23T10:48:40.122Z,99.9
2023-03-23T10:50:45.922Z,99.9
2023-03-23T10:52:54.706Z,99.8
2023-03-23T10:55:00.453Z,99.7
2023-03-23T10:57:06.291Z,99.7
2023-03-23T10:59:12.061Z,99.6
2023-03-23T11:01:17.844Z,99.2
2023-03-23T11:03:23.674Z,98.8
2023-03-23T11:05:29.441Z,98
2023-03-23T11:12:54.166Z,96.7
2023-03-23T11:14:59.930Z,96.8
2023-03-23T11:23:26.071Z,96
2023-03-23T11:31:49.210Z,95.5
2023-03-23T11:34:05.656Z,95.6
2023-03-23T11:36:03.802Z,95.5
2023-03-23T11:42:21.146Z,94
2023-03-23T11:54:58.858Z,93.8
2023-03-23T11:57:04.642Z,93.9
2023-03-23T12:01:16.240Z,94.5
2023-03-23T12:03:22.009Z,94.7
2023-03-23T12:12:52.550Z,93.2
2023-03-23T12:14:58.342Z,93.1
2023-03-23T12:19:12.867Z,92.7
2023-03-23T12:25:30.201Z,92.2
2023-03-23T12:27:36.010Z,92
2023-03-23T12:29:41.771Z,91.9
2023-03-23T12:33:56.330Z,91.7
2023-03-23T12:38:07.931Z,95.8
2023-03-23T12:46:31.093Z,99.2
2023-03-23T12:50:45.645Z,99.9
2023-03-23T12:52:51.397Z,99.9
2023-03-23T12:54:57.207Z,99.9
2023-03-23T12:57:02.991Z,99.9
2023-03-23T12:59:08.808Z,99.9
2023-03-23T13:05:29.103Z,99.9
2023-03-23T13:12:11.939Z,99.9
2023-03-23T13:18:32.250Z,99.9
2023-03-23T13:22:43.808Z,99.9
2023-03-23T13:24:49.612Z,99.9
2023-03-23T13:29:01.153Z,99.9
2023-03-23T13:31:09.870Z,99.9
2023-03-23T13:33:15.667Z,99.9
2023-03-23T13:35:21.473Z,99.9
2023-03-23T13:37:27.270Z,99.8
2023-03-23T13:39:33.055Z,99.8
2023-03-23T13:41:38.823Z,99.6
2023-03-23T13:43:44.631Z,99.4
2023-03-23T13:45:53.459Z,98.6
2023-03-23T13:47:59.173Z,98.4
2023-03-23T13:50:04.996Z,97.9
2023-03-23T13:52:11.450Z,97.6
2023-03-23T13:54:16.578Z,97.3
2023-03-23T13:56:22.370Z,97.3
2023-03-23T13:58:28.138Z,97.2
2023-03-23T14:00:36.896Z,97.2
2023-03-23T14:02:42.684Z,97.1
2023-03-23T14:05:52.865Z,97.2
2023-03-23T14:07:58.659Z,97.3
2023-03-23T14:10:04.437Z,97.2
2023-03-23T14:14:19.017Z,96.8
2023-03-23T14:16:24.796Z,96.8
2023-03-23T14:18:30.615Z,96.5
2023-03-23T14:20:36.373Z,96.4
2023-03-23T14:22:42.147Z,96.4
2023-03-23T14:24:47.955Z,96.2
2023-03-23T14:26:53.743Z,96.2
2023-03-23T14:35:20.605Z,96.5
2023-03-23T14:37:26.408Z,97.8
2023-03-23T14:39:32.205Z,98.4
2023-03-23T14:43:46.754Z,99.6
2023-03-23T14:45:53.836Z,99.6
2023-03-23T14:47:58.299Z,99.9
2023-03-23T14:50:04.113Z,99.9
2023-03-23T14:52:09.893Z,99.9
2023-03-23T14:54:15.688Z,99.9
2023-03-23T14:56:21.490Z,99.9
2023-03-23T15:00:36.045Z,99.9
2023-03-23T15:02:41.815Z,99.9
2023-03-23T15:03:46.977Z,99.9
2023-03-23T15:05:51.995Z,99.9
2023-03-23T15:07:57.761Z,99.9
2023-03-23T15:10:03.586Z,99.9
2023-03-23T15:12:12.356Z,99.9
2023-03-23T15:14:18.114Z,99.9
2023-03-23T15:16:23.902Z,99.9
2023-03-23T15:18:29.735Z,99.9
2023-03-23T15:22:41.315Z,99.7
2023-03-23T15:35:19.028Z,97.5
2023-03-23T15:41:39.371Z,96.2
2023-03-23T15:43:45.183Z,95.9
2023-03-23T15:45:50.943Z,95.5
2023-03-23T15:47:56.747Z,95.1
2023-03-23T15:50:02.564Z,95
2023-03-23T15:52:08.330Z,94.9
2023-03-23T15:54:14.353Z,94.7
2023-03-23T15:56:22.882Z,94.6
2023-03-23T15:58:28.644Z,94.6
2023-03-23T16:00:34.451Z,94.4
2023-03-23T16:01:38.845Z,94.4
2023-03-23T16:05:51.987Z,94.1
2023-03-23T16:07:57.759Z,93.8
2023-03-23T16:16:23.935Z,93.1
2023-03-23T16:18:29.672Z,93.2
2023-03-23T16:24:49.980Z,93.7
2023-03-23T16:26:55.779Z,93.8
2023-03-23T16:35:18.907Z,94.3
2023-03-23T16:39:33.457Z,94.8
2023-03-23T16:41:39.263Z,95
2023-03-23T16:45:50.850Z,95.4
2023-03-23T16:47:56.647Z,95.7
2023-03-23T16:50:02.450Z,95.8
2023-03-23T16:52:08.213Z,96
2023-03-23T16:54:16.960Z,96.3
2023-03-23T16:58:28.538Z,96.5
2023-03-23T17:00:59.792Z,96.6
2023-03-23T17:03:05.676Z,96.6
2023-03-23T17:05:11.387Z,96.7
2023-03-23T17:07:20.158Z,96.8
2023-03-23T17:13:37.505Z,97.4
2023-03-23T17:15:45.239Z,97.5
2023-03-23T17:17:49.098Z,97.7
2023-03-23T17:19:54.844Z,97.8
2023-03-23T17:24:09.388Z,98.3
2023-03-23T17:32:32.554Z,98.8
2023-03-23T17:34:38.312Z,99
2023-03-23T17:36:47.054Z,99.2
2023-03-23T17:40:58.458Z,99.4
2023-03-23T17:43:04.277Z,99.4
2023-03-23T17:45:10.026Z,99.3
2023-03-23T17:47:15.836Z,99.3
2023-03-23T17:49:21.604Z,99.2
2023-03-23T17:51:30.401Z,99.2
2023-03-23T17:56:46.423Z,99.3
2023-03-23T18:00:57.913Z,99.4
2023-03-23T18:03:03.733Z,99.5
2023-03-23T18:05:12.432Z,99.6
2023-03-23T18:07:18.794Z,99.7
2023-03-23T18:09:24.014Z,99.8
2023-03-23T18:11:29.792Z,99.8
2023-03-23T18:13:35.561Z,99.8
2023-03-23T18:15:41.505Z,99.8
2023-03-23T18:17:47.130Z,99.8
2023-03-23T18:19:55.871Z,99.9
2023-03-23T18:22:01.636Z,99.9
2023-03-23T18:24:07.424Z,99.9
2023-03-23T18:28:19.019Z,99.9
2023-03-23T18:30:24.774Z,99.9
2023-03-23T18:32:30.552Z,99.9
2023-03-23T18:36:45.075Z,99.9
2023-03-23T18:40:56.666Z,99.9
2023-03-23T18:53:34.267Z,99.9
2023-03-23T18:54:38.660Z,99.9
2023-03-23T18:56:44.517Z,99.9
2023-03-23T18:58:50.227Z,99.9
2023-03-23T19:07:17.393Z,99.9
2023-03-23T19:09:23.180Z,99.9
2023-03-23T19:11:28.987Z,99.9
2023-03-23T19:13:34.748Z,99.9
2023-03-23T19:17:49.340Z,99.9
2023-03-23T19:19:55.340Z,99.9
2023-03-23T19:22:00.867Z,99.9
2023-03-23T19:24:06.645Z,99.9
2023-03-23T19:28:49.893Z,99.9
2023-03-23T19:30:24.014Z,99.9
2023-03-23T19:32:32.786Z,99.9
2023-03-23T19:34:38.577Z,99.9
2023-03-23T19:38:50.134Z,99.9
2023-03-23T19:43:01.695Z,99.9
2023-03-23T19:45:07.692Z,99.9
2023-03-23T19:47:16.496Z,99.9
2023-03-23T19:49:22.043Z,99.9
2023-03-23T19:51:28.487Z,99.9
2023-03-23T19:52:32.184Z,99.9
2023-03-23T19:54:38.325Z,99.9
2023-03-23T19:56:43.794Z,99.9
2023-03-23T20:03:04.148Z,99.9
2023-03-23T20:05:09.916Z,99.9
2023-03-23T20:13:32.939Z,99.9
2023-03-23T20:17:47.517Z,99.9
2023-03-23T20:19:53.263Z,99.9
2023-03-23T20:24:04.833Z,99.9
2023-03-23T20:28:16.746Z,99.9
2023-03-23T20:30:25.216Z,99.9
2023-03-23T20:56:02.892Z,99.9
2023-03-23T20:58:12.010Z,99.9
2023-03-23T21:00:17.400Z,99.9
2023-03-23T21:02:23.198Z,99.9
2023-03-23T21:04:28.931Z,99.9
2023-03-23T21:06:34.704Z,99.9
2023-03-23T21:08:40.485Z,99.9
2023-03-23T21:10:46.241Z,99.9
2023-03-23T21:12:55.024Z,99.9
2023-03-23T21:15:00.776Z,99.9
2023-03-23T21:17:06.531Z,99.9
2023-03-23T21:19:12.347Z,99.9
2023-03-23T21:21:18.172Z,99.9
2023-03-23T21:23:23.863Z,99.9
2023-03-23T21:25:33.843Z,99.9
2023-03-23T21:27:38.357Z,99.9
2023-03-23T21:33:55.694Z,99.9
2023-03-23T21:36:01.517Z,99.9
2023-03-23T21:40:12.973Z,99.9
2023-03-23T21:42:21.710Z,99.9
2023-03-23T21:47:37.645Z,99.9
2023-03-23T21:49:43.388Z,99.9
2023-03-23T21:51:49.172Z,99.9
2023-03-23T21:53:54.900Z,99.9
2023-03-23T21:56:03.683Z,99.9
2023-03-23T21:58:09.516Z,99.9
2023-03-23T22:00:15.207Z,99.9
2023-03-23T22:02:20.945Z,99.9
2023-03-23T22:04:26.724Z,99.9
2023-03-23T22:06:34.094Z,99.9
2023-03-23T22:08:39.807Z,99.9
2023-03-23T22:11:01.137Z,99.9
2023-03-23T22:12:55.597Z,99.9
2023-03-23T22:15:00.138Z,99.9
2023-03-23T22:19:11.612Z,99.9
2023-03-23T22:21:17.395Z,99.9
2023-03-23T22:23:23.170Z,99.9
2023-03-23T22:27:37.635Z,99.9
2023-03-23T22:29:43.418Z,99.9
2023-03-23T22:31:49.224Z,99.9
2023-03-23T22:33:54.947Z,99.9
2023-03-23T22:36:00.727Z,99.9
2023-03-23T22:38:06.445Z,99.9
2023-03-23T22:45:31.127Z,99.9
2023-03-23T22:47:36.869Z,99.9
2023-03-23T22:49:42.633Z,99.9
2023-03-23T22:51:48.397Z,99.9
2023-03-23T22:53:57.233Z,99.9
2023-03-23T22:56:02.885Z,99.9
2023-03-23T22:58:08.661Z,99.9
2023-03-23T23:00:14.525Z,99.9
2023-03-23T23:02:20.373Z,99.9
2023-03-23T23:06:31.700Z,99.9
2023-03-23T23:08:40.428Z,99.9
2023-03-23T23:10:46.678Z,99.9
2023-03-23T23:12:52.009Z,99.9
2023-03-23T23:14:57.740Z,99.9
2023-03-23T23:25:29.539Z,99.9
2023-03-23T23:27:35.293Z,99.9
2023-03-23T23:29:41.077Z,99.9
2023-03-23T23:31:46.810Z,99.9
2023-03-23T23:33:52.567Z,99.9
2023-03-23T23:43:22.983Z,99.9
2023-03-23T23:45:28.713Z,99.9
2023-03-23T23:47:34.521Z,99.9
2023-03-23T23:58:06.241Z,99.9
